Time;durP1;ratioP1;P1;durP2;ratioP2;P2;SDS_P1;SDS_P2;PMS_P1;PMS_P2;Temp;Humidity;BMP_temperature;BMP_pressure;BME280_temperature;BME280_humidity;BME280_pressure;Samples;Min_cycle;Max_cycle;Signal;HPM_P1;HPM_P2
2022/04/18 00:01:57;;;;;;;2.40;2.20;;;10.30;99.50;;;;;;5041501;28;20309;-68
2022/04/18 00:04:25;;;;;;;5.10;2.20;;;10.10;99.40;;;;;;5044831;28;20224;-69
2022/04/18 00:06:54;;;;;;;3.87;2.30;;;10.20;98.40;;;;;;5043822;28;20662;-68
2022/04/18 00:09:22;;;;;;;2.23;2.10;;;10.20;98.20;;;;;;5045961;28;20197;-69
2022/04/18 00:11:50;;;;;;;3.13;2.33;;;10.30;98.20;;;;;;5058581;28;20227;-68
2022/04/18 00:14:19;;;;;;;2.10;2.00;;;10.30;97.90;;;;;;5041385;28;20595;-69
2022/04/18 00:16:47;;;;;;;2.37;2.23;;;10.30;98.20;;;;;;5045434;28;20238;-68
2022/04/18 00:19:17;;;;;;;2.40;2.30;;;10.30;99.60;;;;;;5047945;28;20199;-69
2022/04/18 00:21:45;;;;;;;4.80;2.50;;;10.10;99.90;;;;;;5046889;28;20688;-68
2022/04/18 00:24:16;;;;;;;2.20;2.10;;;9.90;99.90;;;;;;5046162;28;20283;-68
2022/04/18 00:26:45;;;;;;;2.43;2.30;;;9.80;99.90;;;;;;5048041;28;20199;-68
2022/04/18 00:29:14;;;;;;;4.17;2.77;;;9.60;99.90;;;;;;5044302;28;20220;-68
2022/04/18 00:31:42;;;;;;;2.60;2.37;;;9.50;99.90;;;;;;5045179;28;20199;-68
2022/04/18 00:34:11;;;;;;;4.03;2.53;;;9.30;99.90;;;;;;5041757;28;20290;-69
2022/04/18 00:36:41;;;;;;;3.60;2.60;;;9.10;99.90;;;;;;5046027;28;20188;-68
2022/04/18 00:39:09;;;;;;;2.57;2.37;;;9.10;99.90;;;;;;5046664;28;20192;-69
2022/04/18 00:41:37;;;;;;;5.73;2.40;;;9.00;99.90;;;;;;5045127;28;20201;-68
2022/04/18 00:44:06;;;;;;;2.47;2.30;;;8.90;99.90;;;;;;5043832;28;20196;-69
2022/04/18 00:46:34;;;;;;;3.80;2.50;;;8.80;99.90;;;;;;5047079;28;20565;-68
2022/04/18 00:49:02;;;;;;;2.60;2.40;;;8.70;99.90;;;;;;5046494;28;20236;-69
2022/04/18 00:51:30;;;;;;;2.80;2.60;;;8.70;99.90;;;;;;5043930;28;20577;-68
2022/04/18 00:54:00;;;;;;;2.70;2.50;;;8.60;99.90;;;;;;5045858;28;20767;-69
2022/04/18 00:56:29;;;;;;;2.70;2.60;;;8.50;99.90;;;;;;5048227;28;20200;-69
2022/04/18 00:58:57;;;;;;;3.73;2.30;;;8.40;99.90;;;;;;5044605;28;20650;-68
2022/04/18 01:01:26;;;;;;;2.60;2.50;;;8.30;99.90;;;;;;5041307;28;20205;-69
2022/04/18 01:03:54;;;;;;;2.97;2.53;;;8.30;99.90;;;;;;5037450;28;20185;-68
2022/04/18 01:06:22;;;;;;;2.63;2.40;;;8.40;99.90;;;;;;5043159;28;22399;-68
2022/04/18 01:08:52;;;;;;;2.70;2.30;;;8.40;99.90;;;;;;5041738;28;20490;-69
2022/04/18 01:11:22;;;;;;;2.70;2.50;;;8.40;99.90;;;;;;5047827;28;20205;-69
2022/04/18 01:13:50;;;;;;;2.47;2.30;;;8.40;99.90;;;;;;5045531;28;20201;-68
2022/04/18 01:16:18;;;;;;;2.40;2.30;;;8.40;99.90;;;;;;5037914;28;20197;-69
2022/04/18 01:18:48;;;;;;;2.80;2.60;;;8.30;99.90;;;;;;5042647;28;20220;-68
2022/04/18 01:21:19;;;;;;;2.80;2.60;;;8.20;99.90;;;;;;5047439;28;20870;-69
2022/04/18 01:23:47;;;;;;;2.43;2.33;;;8.10;99.90;;;;;;5045823;28;20199;-68
2022/04/18 01:29:02;;;;;;;2.67;2.47;;;7.80;99.90;;;;;;5045565;28;20212;-68
2022/04/18 01:31:32;;;;;;;3.63;2.90;;;7.70;99.90;;;;;;5045295;28;20685;-68
2022/04/18 01:34:02;;;;;;;4.40;2.83;;;7.70;99.90;;;;;;5043216;28;20259;-68
2022/04/18 01:36:32;;;;;;;2.70;2.50;;;7.60;99.90;;;;;;5047132;28;20207;-68
2022/04/18 01:39:01;;;;;;;6.90;2.80;;;7.50;99.90;;;;;;5041863;28;20196;-69
2022/04/18 01:41:29;;;;;;;2.67;2.53;;;7.50;99.90;;;;;;5046402;28;20200;-68
2022/04/18 01:43:58;;;;;;;2.70;2.60;;;7.50;99.90;;;;;;5041755;28;20210;-69
2022/04/18 01:46:26;;;;;;;2.83;2.63;;;7.50;99.90;;;;;;5043859;28;20574;-69
2022/04/18 01:48:54;;;;;;;2.97;2.67;;;7.40;99.90;;;;;;5046084;28;20216;-69
2022/04/18 01:51:23;;;;;;;2.40;2.30;;;7.40;99.90;;;;;;5045775;28;20192;-69
2022/04/18 01:53:58;;;;;;;2.93;2.73;;;7.30;99.90;;;;;;5046010;28;20627;-68
2022/04/18 01:56:26;;;;;;;2.80;2.60;;;7.20;99.90;;;;;;5047940;28;20201;-69
2022/04/18 01:58:54;;;;;;;2.63;2.53;;;7.20;99.90;;;;;;5046272;28;20710;-68
2022/04/18 02:01:23;;;;;;;3.23;2.87;;;7.10;99.90;;;;;;5046573;28;20228;-69
2022/04/18 02:03:51;;;;;;;5.17;2.67;;;7.10;99.90;;;;;;5046268;28;20193;-68
2022/04/18 02:06:19;;;;;;;2.93;2.73;;;7.00;99.90;;;;;;5048419;28;20203;-69
2022/04/18 02:08:48;;;;;;;2.83;2.63;;;6.90;99.90;;;;;;5044315;28;20240;-68
2022/04/18 02:11:17;;;;;;;3.37;3.03;;;6.80;99.90;;;;;;5045880;28;20465;-68
2022/04/18 02:13:46;;;;;;;4.53;2.80;;;6.80;99.90;;;;;;5046831;28;20207;-69
2022/04/18 02:16:14;;;;;;;3.07;2.87;;;6.70;99.90;;;;;;5045075;28;20586;-69
2022/04/18 02:18:42;;;;;;;3.30;2.93;;;6.70;99.90;;;;;;5041598;28;20282;-68
2022/04/18 02:21:12;;;;;;;3.10;2.83;;;6.70;99.90;;;;;;5040647;28;20197;-68
2022/04/18 02:23:40;;;;;;;3.13;2.90;;;6.60;99.90;;;;;;5044998;28;20204;-69
2022/04/18 02:26:09;;;;;;;2.70;2.60;;;6.60;99.90;;;;;;5042284;28;20205;-69
2022/04/18 02:28:40;;;;;;;2.73;2.43;;;6.60;99.90;;;;;;5044273;28;20208;-69
2022/04/18 02:31:09;;;;;;;4.03;2.80;;;6.60;99.90;;;;;;5040601;28;20199;-69
2022/04/18 02:33:37;;;;;;;3.87;2.70;;;6.70;99.90;;;;;;5041815;28;20323;-69
2022/04/18 02:36:06;;;;;;;4.70;2.63;;;6.80;99.90;;;;;;5046255;28;20205;-69
2022/04/18 02:38:34;;;;;;;4.23;3.10;;;6.90;99.90;;;;;;5041576;28;22066;-69
2022/04/18 02:41:02;;;;;;;2.83;2.63;;;7.00;99.90;;;;;;5044422;28;20201;-68
2022/04/18 02:43:31;;;;;;;4.80;2.40;;;7.10;99.90;;;;;;5045806;28;20417;-69
2022/04/18 02:46:00;;;;;;;2.50;2.30;;;7.20;99.90;;;;;;5042147;28;20196;-69
2022/04/18 02:48:31;;;;;;;4.70;2.80;;;7.30;99.90;;;;;;5042356;28;20315;-69
2022/04/18 02:51:00;;;;;;;6.17;3.37;;;7.30;99.90;;;;;;5045669;28;20204;-69
2022/04/18 02:53:28;;;;;;;3.27;2.97;;;7.20;99.90;;;;;;5043698;28;20292;-68
2022/04/18 02:55:56;;;;;;;3.27;3.07;;;7.10;99.90;;;;;;5048169;28;20557;-69
2022/04/18 02:58:24;;;;;;;4.63;2.93;;;7.00;99.90;;;;;;5042060;28;20295;-68
2022/04/18 03:00:52;;;;;;;3.97;2.70;;;6.80;99.90;;;;;;5031153;28;20193;-68
2022/04/18 03:03:22;;;;;;;3.07;2.83;;;6.70;99.90;;;;;;5043961;28;20275;-68
2022/04/18 03:05:50;;;;;;;3.03;2.87;;;6.60;99.90;;;;;;5044262;28;20204;-68
2022/04/18 03:08:19;;;;;;;3.67;2.83;;;6.60;99.90;;;;;;5046530;28;20197;-69
2022/04/18 03:11:05;;;;;;;4.10;2.87;;;6.60;99.90;;;;;;5038874;28;20458;-69
2022/04/18 03:13:36;;;;;;;2.67;2.57;;;6.60;99.90;;;;;;5045929;28;20613;-69
2022/04/18 03:16:06;;;;;;;5.53;2.97;;;6.40;99.90;;;;;;5016373;28;20200;-68
2022/04/18 03:18:36;;;;;;;3.10;2.90;;;6.40;99.90;;;;;;5040309;28;20761;-69
2022/04/18 03:21:04;;;;;;;6.13;2.83;;;6.40;99.90;;;;;;5040443;28;20193;-69
2022/04/18 03:23:33;;;;;;;3.00;2.90;;;6.30;99.90;;;;;;5045100;28;20817;-69
2022/04/18 03:26:02;;;;;;;3.57;3.27;;;6.30;99.90;;;;;;5043490;28;20200;-68
2022/04/18 03:28:32;;;;;;;4.70;3.33;;;6.20;99.90;;;;;;5044823;28;20561;-69
2022/04/18 03:31:00;;;;;;;3.20;3.00;;;6.20;99.90;;;;;;5040472;28;20336;-69
2022/04/18 03:33:28;;;;;;;2.70;2.60;;;6.10;99.90;;;;;;5042873;28;20236;-69
2022/04/18 03:41:30;;;;;;;4.83;2.93;;;5.90;99.90;;;;;;5044559;28;20189;-69
2022/04/18 03:43:58;;;;;;;3.60;3.30;;;5.90;99.90;;;;;;5045401;28;20211;-68
2022/04/18 03:46:26;;;;;;;2.93;2.73;;;6.00;99.90;;;;;;5043789;28;20593;-69
2022/04/18 03:48:55;;;;;;;4.27;3.13;;;5.90;99.90;;;;;;5041394;28;20232;-69
2022/04/18 03:51:25;;;;;;;3.53;3.20;;;5.90;99.90;;;;;;5040045;28;20204;-69
2022/04/18 03:53:53;;;;;;;3.47;3.13;;;5.90;99.90;;;;;;5045613;28;20197;-69
2022/04/18 03:56:21;;;;;;;3.67;3.10;;;5.90;99.90;;;;;;5045777;28;20206;-69
2022/04/18 03:58:50;;;;;;;3.67;3.37;;;5.90;99.90;;;;;;5042816;28;20197;-68
2022/04/18 04:01:18;;;;;;;5.53;2.93;;;5.90;99.90;;;;;;5039964;28;20197;-69
2022/04/18 04:03:47;;;;;;;6.37;3.50;;;5.90;99.90;;;;;;5044866;28;20192;-69
2022/04/18 04:06:16;;;;;;;4.47;3.00;;;5.90;99.90;;;;;;5041447;28;20188;-69
2022/04/18 04:08:45;;;;;;;4.67;3.60;;;5.90;99.90;;;;;;5042253;28;20295;-69
2022/04/18 04:11:13;;;;;;;6.23;3.20;;;5.80;99.90;;;;;;5042747;28;20212;-69
2022/04/18 04:13:42;;;;;;;3.10;2.90;;;5.80;99.90;;;;;;5044770;28;20348;-69
2022/04/18 04:16:11;;;;;;;4.20;3.30;;;5.80;99.90;;;;;;5042930;28;20192;-69
2022/04/18 04:18:39;;;;;;;4.87;3.57;;;5.80;99.90;;;;;;5040555;28;20256;-68
2022/04/18 04:21:08;;;;;;;5.63;3.40;;;5.80;99.90;;;;;;5044967;28;20205;-69
2022/04/18 04:23:36;;;;;;;4.50;3.40;;;5.80;99.90;;;;;;5040694;28;20429;-69
2022/04/18 04:26:13;;;;;;;3.47;3.23;;;5.80;99.90;;;;;;5042462;28;20199;-69
2022/04/18 04:28:41;;;;;;;4.03;3.63;;;5.90;99.90;;;;;;5039994;28;20212;-69
2022/04/18 04:31:11;;;;;;;4.33;3.70;;;5.90;99.90;;;;;;5044911;28;20213;-69
2022/04/18 04:33:39;;;;;;;3.73;3.43;;;5.80;99.90;;;;;;5043303;28;20236;-69
2022/04/18 04:36:07;;;;;;;3.63;3.40;;;5.70;99.90;;;;;;5040144;28;20213;-68
2022/04/18 04:38:36;;;;;;;4.10;3.50;;;5.70;99.90;;;;;;5043027;28;20208;-69
2022/04/18 04:41:05;;;;;;;4.37;3.30;;;5.70;99.90;;;;;;5044246;28;20678;-69
2022/04/18 04:43:34;;;;;;;5.77;3.70;;;5.70;99.90;;;;;;5043852;28;20284;-69
2022/04/18 04:46:02;;;;;;;4.80;3.70;;;5.80;99.90;;;;;;5044881;28;20204;-68
2022/04/18 04:48:31;;;;;;;4.97;3.40;;;5.80;99.90;;;;;;5042761;28;20220;-69
2022/04/18 04:51:00;;;;;;;4.27;3.43;;;5.90;99.90;;;;;;5044309;28;20224;-69
2022/04/18 04:53:28;;;;;;;4.30;3.53;;;5.90;99.90;;;;;;5038410;28;20201;-69
2022/04/18 04:55:56;;;;;;;6.10;3.50;;;6.00;99.90;;;;;;5042707;28;20376;-69
2022/04/18 04:58:27;;;;;;;5.23;3.40;;;6.00;99.90;;;;;;5041559;28;20208;-69
2022/04/18 05:00:58;;;;;;;3.60;3.30;;;6.10;99.90;;;;;;5040410;28;20189;-68
2022/04/18 05:03:26;;;;;;;5.93;3.40;;;6.10;99.90;;;;;;5044264;28;20200;-69
2022/04/18 05:05:55;;;;;;;3.23;3.03;;;6.10;99.90;;;;;;5059009;28;20272;-68
2022/04/18 05:08:23;;;;;;;9.20;3.57;;;6.20;99.90;;;;;;5043599;28;20207;-69
2022/04/18 05:10:54;;;;;;;5.40;3.43;;;6.20;99.90;;;;;;5043731;28;20217;-69
2022/04/18 05:13:23;;;;;;;3.73;3.40;;;6.30;99.90;;;;;;5046566;28;20611;-69
2022/04/18 05:15:51;;;;;;;4.10;3.50;;;6.40;99.90;;;;;;5045201;28;20209;-69
2022/04/18 05:18:21;;;;;;;3.63;3.20;;;6.40;99.90;;;;;;5044466;28;20600;-69
2022/04/18 05:20:49;;;;;;;5.37;3.80;;;6.50;99.90;;;;;;5047590;28;20200;-69
2022/04/18 05:23:19;;;;;;;5.07;3.43;;;6.60;99.90;;;;;;5047131;28;20204;-69
2022/04/18 05:25:47;;;;;;;4.80;3.83;;;6.60;99.90;;;;;;5050058;28;20262;-68
2022/04/18 05:28:16;;;;;;;4.97;3.83;;;6.70;99.90;;;;;;5040628;28;20272;-69
2022/04/18 05:30:44;;;;;;;4.10;3.47;;;6.80;99.90;;;;;;5047996;28;20213;-69
2022/04/18 05:33:13;;;;;;;5.10;3.50;;;6.80;99.90;;;;;;5044968;28;20335;-69
2022/04/18 05:35:43;;;;;;;7.57;3.80;;;6.80;99.90;;;;;;5048060;28;20196;-69
2022/04/18 05:38:11;;;;;;;6.20;3.87;;;6.90;99.90;;;;;;5044075;28;20212;-69
2022/04/18 05:40:40;;;;;;;4.73;3.40;;;7.00;99.90;;;;;;5041524;28;20283;-69
2022/04/18 05:43:09;;;;;;;3.67;3.43;;;7.20;99.90;;;;;;5039766;28;20266;-69
2022/04/18 05:45:38;;;;;;;4.30;3.50;;;7.40;99.90;;;;;;5044900;28;20201;-69
2022/04/18 05:48:08;;;;;;;4.33;3.63;;;7.70;99.90;;;;;;5041857;28;20205;-69
2022/04/18 05:50:36;;;;;;;5.63;3.63;;;8.00;99.90;;;;;;5043660;28;20217;-69
2022/04/18 05:53:06;;;;;;;3.70;3.43;;;8.40;99.90;;;;;;5045502;28;20199;-69
2022/04/18 05:55:37;;;;;;;7.33;3.67;;;8.50;99.90;;;;;;5046406;28;20287;-69
2022/04/18 05:58:05;;;;;;;4.97;3.80;;;8.70;99.90;;;;;;5043985;28;20197;-68
2022/04/18 06:00:35;;;;;;;6.60;3.60;;;8.80;99.90;;;;;;5050314;28;20199;-69
2022/04/18 06:03:04;;;;;;;4.07;3.43;;;8.90;99.90;;;;;;5051242;28;20197;-70
2022/04/18 06:05:32;;;;;;;6.37;3.53;;;9.10;99.90;;;;;;5050369;28;20330;-69
2022/04/18 06:08:01;;;;;;;5.87;3.60;;;9.20;99.90;;;;;;5044041;28;20212;-69
2022/04/18 06:10:31;;;;;;;4.97;3.97;;;9.20;99.90;;;;;;5041770;28;20193;-70
2022/04/18 06:12:59;;;;;;;6.27;3.63;;;9.20;99.90;;;;;;5044296;28;20201;-69
2022/04/18 06:15:28;;;;;;;4.63;3.87;;;9.10;99.90;;;;;;5046527;28;20269;-69
2022/04/18 06:17:56;;;;;;;5.57;3.50;;;9.10;99.90;;;;;;5043543;28;20203;-69
2022/04/18 06:20:25;;;;;;;4.53;3.90;;;9.00;99.90;;;;;;5040601;28;20298;-69
2022/04/18 06:22:54;;;;;;;8.07;3.80;;;9.00;99.90;;;;;;5044093;28;20207;-69
2022/04/18 06:25:22;;;;;;;5.40;3.93;;;9.00;99.90;;;;;;5043101;28;20283;-69
2022/04/18 06:27:52;;;;;;;4.07;3.77;;;9.00;99.90;;;;;;5045571;28;20224;-69
2022/04/18 06:30:20;;;;;;;6.77;4.37;;;9.00;99.90;;;;;;5039778;28;20574;-69
2022/04/18 06:32:49;;;;;;;7.10;4.33;;;8.90;99.90;;;;;;5041444;28;20676;-69
2022/04/18 06:35:17;;;;;;;4.43;4.00;;;8.90;99.90;;;;;;5048102;28;20300;-68
2022/04/18 06:37:46;;;;;;;5.40;4.27;;;8.80;99.90;;;;;;5045759;28;20201;-69
2022/04/18 06:40:19;;;;;;;4.73;3.97;;;8.80;99.90;;;;;;5042293;28;20204;-69
2022/04/18 06:42:49;;;;;;;4.20;3.83;;;8.90;99.90;;;;;;5043476;28;20552;-70
2022/04/18 06:45:19;;;;;;;5.20;4.17;;;9.00;99.90;;;;;;5044365;28;20196;-69
2022/04/18 06:47:48;;;;;;;5.37;3.90;;;9.40;99.90;;;;;;5046133;28;20197;-69
2022/04/18 06:50:16;;;;;;;6.23;4.07;;;9.90;99.90;;;;;;5046133;28;20319;-69
2022/04/18 06:52:47;;;;;;;6.63;3.50;;;10.60;99.90;;;;;;5045206;28;20285;-68
2022/04/18 06:55:15;;;;;;;6.37;3.50;;;11.10;99.90;;;;;;5034226;28;20208;-69
2022/04/18 06:57:42;;;;;;;3.60;3.30;;;11.60;99.90;;;;;;5047381;28;20197;-69
2022/04/18 07:00:11;;;;;;;7.47;3.00;;;11.90;99.90;;;;;;5036199;28;20602;-69
2022/04/18 07:02:46;;;;;;;3.60;3.40;;;12.40;99.90;;;;;;5032794;28;20613;-68
2022/04/18 07:05:15;;;;;;;3.40;3.20;;;12.90;99.90;;;;;;5033593;28;20304;-69
2022/04/18 07:07:44;;;;;;;3.40;3.10;;;13.10;99.90;;;;;;5036998;28;20581;-68
2022/04/18 07:10:12;;;;;;;3.00;2.87;;;13.20;99.90;;;;;;5042637;28;20631;-69
2022/04/18 07:12:40;;;;;;;5.10;2.87;;;13.50;99.90;;;;;;5043039;28;20717;-69
2022/04/18 07:15:09;;;;;;;3.13;2.93;;;13.90;99.90;;;;;;5038188;28;20671;-68
2022/04/18 07:17:38;;;;;;;4.13;3.33;;;14.20;99.90;;;;;;5038809;28;20891;-69
2022/04/18 07:20:09;;;;;;;3.33;3.00;;;14.50;99.90;;;;;;5038727;28;20630;-68
2022/04/18 07:22:39;;;;;;;5.67;3.77;;;14.50;99.90;;;;;;5045478;28;20749;-69
2022/04/18 07:25:08;;;;;;;3.83;3.53;;;14.60;99.90;;;;;;5038465;28;20192;-69
2022/04/18 07:27:37;;;;;;;8.87;4.13;;;14.90;99.90;;;;;;5038761;28;20215;-68
2022/04/18 07:30:06;;;;;;;6.07;3.60;;;15.40;99.90;;;;;;5041786;28;20267;-68
2022/04/18 07:32:39;;;;;;;4.00;3.40;;;15.60;99.90;;;;;;5043197;28;20224;-68
2022/04/18 07:35:11;;;;;;;4.73;3.63;;;16.00;99.90;;;;;;5041030;28;20434;-69
2022/04/18 07:38:48;;;;;;;5.00;3.70;;;16.30;99.90;;;;;;5036594;28;20207;-68
2022/04/18 07:40:30;;;;;;;4.80;3.40;;;16.60;99.90;;;;;;5036983;28;20200;-69
2022/04/18 07:42:58;;;;;;;4.83;3.20;;;16.90;99.90;;;;;;5045498;28;20196;-69
2022/04/18 07:45:27;;;;;;;7.00;3.30;;;17.10;99.90;;;;;;5042032;28;20304;-68
2022/04/18 07:47:57;;;;;;;3.63;3.20;;;17.40;99.90;;;;;;5043448;28;20259;-69
2022/04/18 07:51:31;;;;;;;5.90;3.07;;;17.60;99.90;;;;;;5044618;28;20715;-68
2022/04/18 07:53:15;;;;;;;3.80;3.20;;;17.70;99.90;;;;;;5041244;28;20312;-69
2022/04/18 07:55:43;;;;;;;3.27;3.07;;;18.00;99.30;;;;;;5039853;28;21959;-69
2022/04/18 07:58:11;;;;;;;4.93;2.50;;;18.10;98.90;;;;;;5044156;28;20658;-69
2022/04/18 08:00:40;;;;;;;5.17;3.00;;;18.30;98.40;;;;;;5044306;28;20196;-68
2022/04/18 08:03:08;;;;;;;5.37;2.90;;;18.60;96.80;;;;;;5045311;28;20200;-69
2022/04/18 08:05:38;;;;;;;3.33;2.97;;;18.80;96.60;;;;;;5045059;28;20215;-69
2022/04/18 08:08:07;;;;;;;3.40;2.80;;;19.00;98.30;;;;;;5042911;28;20687;-68
2022/04/18 08:10:36;;;;;;;4.03;2.97;;;19.10;95.90;;;;;;5045246;28;20658;-68
2022/04/18 08:13:05;;;;;;;4.17;2.93;;;19.00;96.00;;;;;;5053500;28;20753;-69
2022/04/18 08:15:34;;;;;;;3.80;2.70;;;19.40;97.60;;;;;;5026525;28;20643;-69
2022/04/18 08:18:05;;;;;;;2.53;2.43;;;19.70;96.50;;;;;;5047321;28;20187;-69
2022/04/18 08:20:33;;;;;;;2.60;2.50;;;20.10;94.60;;;;;;5048309;28;20203;-69
2022/04/18 08:23:03;;;;;;;3.27;2.60;;;20.10;94.00;;;;;;5055590;28;20195;-69
2022/04/18 08:25:31;;;;;;;3.83;2.50;;;20.40;93.60;;;;;;5038657;28;20216;-69
2022/04/18 08:28:00;;;;;;;5.83;2.70;;;20.60;92.40;;;;;;5037664;28;20283;-69
2022/04/18 08:30:28;;;;;;;6.37;2.40;;;21.00;92.40;;;;;;5040808;28;20292;-72
2022/04/18 08:32:57;;;;;;;3.83;2.60;;;21.40;92.00;;;;;;5036207;28;20231;-69
2022/04/18 08:35:26;;;;;;;3.23;2.93;;;21.80;92.20;;;;;;5041849;28;20197;-69
2022/04/18 08:37:54;;;;;;;2.77;2.50;;;22.00;91.80;;;;;;5041768;28;20291;-69
2022/04/18 08:40:27;;;;;;;2.70;2.57;;;22.10;91.70;;;;;;5043001;28;20719;-69
2022/04/18 08:42:56;;;;;;;3.10;2.90;;;22.30;90.10;;;;;;5047365;28;20227;-69
2022/04/18 08:45:26;;;;;;;2.60;2.40;;;22.40;93.10;;;;;;5043263;28;20203;-69
2022/04/18 08:53:30;;;;;;;2.92;2.20;;;22.60;89.00;;;;;;5044156;28;20217;-68
2022/04/18 08:56:01;;;;;;;3.95;2.30;;;22.90;89.90;;;;;;5035329;28;20301;-69
2022/04/18 08:58:30;;;;;;;2.60;2.40;;;23.50;87.30;;;;;;5043314;28;20212;-68
2022/04/18 09:01:00;;;;;;;2.08;1.98;;;23.30;85.30;;;;;;5043471;28;20229;-68
2022/04/18 09:03:34;;;;;;;2.83;2.50;;;23.30;84.80;;;;;;5044650;28;20203;-68
2022/04/18 09:06:08;;;;;;;2.67;2.47;;;23.40;88.00;;;;;;5038343;28;20209;-68
2022/04/18 09:08:44;;;;;;;2.58;2.47;;;23.50;85.70;;;;;;5035277;28;20286;-68
2022/04/18 09:11:27;;;;;;;2.28;2.10;;;23.60;89.10;;;;;;5038157;28;20245;-68
2022/04/18 09:14:05;;;;;;;2.47;2.30;;;24.10;85.20;;;;;;5039762;28;20230;-68
2022/04/18 09:16:34;;;;;;;2.40;2.20;;;24.50;88.30;;;;;;5041249;28;20277;-68
2022/04/18 09:19:06;;;;;;;2.90;2.30;;;24.40;83.60;;;;;;5039983;28;20208;-68
2022/04/18 09:21:34;;;;;;;2.10;2.00;;;24.30;86.60;;;;;;5042223;28;20608;-68
2022/04/18 09:24:02;;;;;;;2.35;2.15;;;24.60;85.20;;;;;;5037537;28;20303;-68
2022/04/18 09:26:32;;;;;;;2.00;1.92;;;25.00;82.90;;;;;;5045060;28;20196;-68
2022/04/18 09:29:05;;;;;;;2.45;2.25;;;24.80;82.10;;;;;;5046930;28;20395;-68
2022/04/18 09:31:41;;;;;;;2.17;2.08;;;25.20;87.30;;;;;;5051096;28;20197;-68
2022/04/18 09:34:09;;;;;;;7.43;2.00;;;25.00;80.00;;;;;;5037686;28;20764;-68
2022/04/18 09:36:38;;;;;;;2.22;1.85;;;25.50;83.30;;;;;;5041443;28;20280;-68
2022/04/18 09:39:09;;;;;;;3.40;2.10;;;25.60;83.20;;;;;;5039271;28;20212;-68
2022/04/18 09:41:39;;;;;;;2.08;1.98;;;25.80;79.60;;;;;;5036787;28;20209;-68
2022/04/18 09:44:08;;;;;;;2.30;2.10;;;26.00;79.30;;;;;;5043607;28;20203;-68
2022/04/18 09:46:36;;;;;;;1.90;1.80;;;25.90;79.40;;;;;;5044275;28;20246;-68
2022/04/18 09:49:05;;;;;;;4.75;2.15;;;25.70;76.60;;;;;;5047225;28;20205;-68
2022/04/18 09:51:37;;;;;;;4.97;2.15;;;25.70;77.40;;;;;;5049976;28;20201;-68
2022/04/18 09:54:07;;;;;;;1.83;1.70;;;25.90;77.40;;;;;;5050321;28;20700;-68
2022/04/18 09:56:35;;;;;;;2.42;1.98;;;26.20;76.30;;;;;;5049769;28;20209;-68
2022/04/18 09:59:05;;;;;;;2.10;2.00;;;26.20;77.30;;;;;;5049357;28;20204;-68
2022/04/18 10:01:35;;;;;;;2.08;1.98;;;26.40;77.20;;;;;;5047823;28;20201;-68
2022/04/18 10:04:42;;;;;;;2.10;1.90;;;26.70;75.80;;;;;;5049609;28;20508;-68
2022/04/18 10:07:49;;;;;;;5.05;1.60;;;26.60;75.00;;;;;;5043660;28;20242;-68
2022/04/18 10:10:19;;;;;;;2.75;1.83;;;26.70;76.90;;;;;;5048659;28;20185;-68
2022/04/18 10:12:47;;;;;;;2.05;1.90;;;26.80;75.20;;;;;;5049722;28;20224;-68
2022/04/18 10:15:17;;;;;;;2.50;2.38;;;27.00;73.70;;;;;;5048035;28;20215;-67
2022/04/18 10:17:46;;;;;;;1.63;1.50;;;27.20;72.70;;;;;;5049333;28;20193;-68
2022/04/18 10:20:27;;;;;;;2.45;1.60;;;27.20;73.00;;;;;;5049503;28;20197;-67
2022/04/18 10:23:23;;;;;;;2.00;1.90;;;27.10;73.90;;;;;;5048037;28;20682;-68
2022/04/18 10:26:24;;;;;;;2.03;1.90;;;27.20;74.70;;;;;;5040602;28;20276;-68
2022/04/18 10:28:55;;;;;;;2.80;1.83;;;27.10;70.30;;;;;;5042320;28;20220;-68
2022/04/18 10:31:29;;;;;;;2.00;1.90;;;27.30;70.80;;;;;;5048744;28;20205;-68
2022/04/18 10:33:57;;;;;;;1.83;1.80;;;27.20;70.20;;;;;;5049595;28;20231;-68
2022/04/18 10:36:27;;;;;;;2.00;1.80;;;27.30;70.50;;;;;;5048995;28;20199;-67
2022/04/18 10:38:56;;;;;;;2.92;1.80;;;27.40;71.30;;;;;;5056320;28;20656;-68
2022/04/18 10:41:35;;;;;;;2.00;1.90;;;27.90;69.10;;;;;;5048041;28;20200;-68
2022/04/18 10:44:08;;;;;;;1.63;1.63;;;27.80;69.40;;;;;;5049201;28;20227;-67
2022/04/18 10:46:38;;;;;;;2.22;1.55;;;27.70;66.90;;;;;;5048093;28;20202;-67
2022/04/18 10:49:14;;;;;;;1.77;1.67;;;26.90;67.90;;;;;;5047003;28;20204;-67
2022/04/18 10:51:44;;;;;;;2.05;2.00;;;26.50;69.40;;;;;;5048280;28;20308;-67
2022/04/18 10:54:16;;;;;;;1.88;1.88;;;26.60;70.80;;;;;;5048302;28;20210;-67
2022/04/18 10:56:53;;;;;;;2.72;2.20;;;26.50;66.70;;;;;;5049348;28;20223;-67
2022/04/18 10:59:23;;;;;;;3.08;2.20;;;26.30;67.90;;;;;;5046395;28;20215;-67
2022/04/18 11:01:54;;;;;;;2.20;2.00;;;25.80;66.10;;;;;;5045657;28;20285;-67
2022/04/18 11:04:27;;;;;;;2.10;2.00;;;25.50;68.70;;;;;;5049198;28;20308;-67
2022/04/18 11:07:04;;;;;;;2.05;1.95;;;25.90;69.40;;;;;;5048679;28;20370;-68
2022/04/18 11:09:34;;;;;;;2.33;2.22;;;26.50;67.50;;;;;;5044480;28;20205;-68
2022/04/18 11:12:12;;;;;;;2.22;2.13;;;26.40;67.80;;;;;;5047207;28;20458;-68
2022/04/18 11:14:49;;;;;;;3.03;1.92;;;26.30;66.20;;;;;;5048684;28;20237;-67
2022/04/18 11:17:39;;;;;;;3.78;1.90;;;26.10;64.80;;;;;;5046605;28;20208;-68
2022/04/18 11:20:28;;;;;;;2.10;2.00;;;25.80;68.50;;;;;;5049040;28;20202;-68
2022/04/18 11:23:19;;;;;;;2.00;1.90;;;25.90;67.00;;;;;;5048015;28;20205;-67
2022/04/18 11:25:54;;;;;;;2.58;2.47;;;25.80;68.50;;;;;;5036856;28;20216;-67
2022/04/18 11:28:23;;;;;;;3.28;2.40;;;25.50;66.90;;;;;;5024019;28;20287;-67
2022/04/18 11:30:52;;;;;;;3.70;2.50;;;25.60;69.40;;;;;;5045617;28;20196;-67
2022/04/18 11:33:21;;;;;;;2.30;2.20;;;24.90;65.60;;;;;;5045869;28;20229;-67
2022/04/18 11:35:50;;;;;;;4.83;2.30;;;25.20;69.10;;;;;;5047884;28;20275;-68
2022/04/18 11:38:18;;;;;;;2.60;2.40;;;25.30;69.50;;;;;;5046137;28;20211;-67
2022/04/18 11:40:47;;;;;;;3.63;2.40;;;25.20;68.90;;;;;;5047520;28;20267;-67
2022/04/18 11:43:17;;;;;;;2.63;2.47;;;24.90;66.80;;;;;;5046625;28;20280;-67
2022/04/18 11:45:45;;;;;;;7.83;2.63;;;24.80;67.20;;;;;;5047654;28;20227;-67
2022/04/18 11:48:14;;;;;;;2.57;2.37;;;24.80;70.20;;;;;;5047751;28;20205;-67
2022/04/18 11:50:44;;;;;;;2.33;2.17;;;24.60;72.00;;;;;;5048354;28;20214;-67
2022/04/18 11:53:18;;;;;;;3.63;2.50;;;25.00;67.70;;;;;;5040267;28;20225;-67
2022/04/18 11:55:49;;;;;;;3.00;2.80;;;25.00;66.40;;;;;;5042641;28;20222;-67
2022/04/18 11:58:20;;;;;;;2.33;2.20;;;24.50;65.80;;;;;;5048202;28;20197;-67
2022/04/18 12:09:11;;;;;;;2.40;2.30;;;25.30;68.20;;;;;;5046758;28;20276;-67
2022/04/18 12:11:40;;;;;;;5.10;2.20;;;25.70;68.80;;;;;;5046740;28;20232;-68
2022/04/18 12:14:08;;;;;;;2.53;2.30;;;25.80;67.50;;;;;;5047908;28;20193;-67
2022/04/18 12:16:38;;;;;;;2.60;2.40;;;25.60;66.10;;;;;;5047169;28;20193;-67
2022/04/18 12:19:12;;;;;;;2.37;2.20;;;25.40;66.60;;;;;;5047077;28;20694;-67
2022/04/18 12:21:41;;;;;;;3.10;2.00;;;25.30;66.90;;;;;;5047158;28;20207;-67
2022/04/18 12:24:10;;;;;;;2.63;2.43;;;25.10;65.20;;;;;;5044974;28;20552;-67
2022/04/18 12:26:40;;;;;;;2.30;2.10;;;23.60;66.50;;;;;;5045395;28;20193;-67
2022/04/18 12:29:11;;;;;;;2.90;2.17;;;23.30;67.40;;;;;;5047663;28;20625;-67
2022/04/18 12:31:40;;;;;;;2.60;2.27;;;23.20;66.60;;;;;;5047293;28;20277;-67
2022/04/18 12:34:18;;;;;;;2.30;2.17;;;23.40;70.70;;;;;;5045497;28;20224;-67
2022/04/18 12:36:56;;;;;;;2.57;2.20;;;23.40;68.30;;;;;;5048547;28;20193;-67
2022/04/18 12:39:25;;;;;;;2.47;2.27;;;23.50;66.20;;;;;;5042213;28;20311;-67
2022/04/18 12:42:01;;;;;;;2.77;2.60;;;23.40;69.10;;;;;;5048011;28;20284;-67
2022/04/18 12:44:29;;;;;;;2.77;2.57;;;23.30;65.90;;;;;;5042419;28;20690;-67
2022/04/18 12:46:58;;;;;;;2.40;2.30;;;23.00;71.70;;;;;;5047882;28;20220;-67
2022/04/18 12:49:27;;;;;;;2.90;2.70;;;23.20;72.40;;;;;;5045685;28;20228;-67
2022/04/18 12:51:56;;;;;;;2.90;2.00;;;23.20;67.50;;;;;;5047899;28;20211;-67
2022/04/18 12:54:27;;;;;;;2.27;2.10;;;23.40;73.10;;;;;;5026842;28;20505;-67
2022/04/18 12:56:55;;;;;;;3.57;2.50;;;23.30;66.70;;;;;;5048380;28;20279;-67
2022/04/18 12:59:26;;;;;;;2.13;2.03;;;22.90;67.10;;;;;;5046035;28;20226;-67
2022/04/18 13:02:05;;;;;;;2.60;2.40;;;22.70;65.50;;;;;;5045087;28;20275;-67
2022/04/18 13:04:33;;;;;;;2.80;2.50;;;22.40;66.50;;;;;;5043808;28;20552;-67
2022/04/18 13:07:06;;;;;;;3.23;2.43;;;22.40;67.40;;;;;;5045692;28;20197;-67
2022/04/18 13:09:35;;;;;;;2.60;2.40;;;22.60;65.10;;;;;;5044941;28;20197;-67
2022/04/18 13:12:06;;;;;;;2.70;2.40;;;22.60;68.50;;;;;;5042132;28;20647;-67
2022/04/18 13:14:37;;;;;;;2.40;2.30;;;22.60;69.40;;;;;;5044576;28;20189;-67
2022/04/18 13:17:07;;;;;;;3.63;2.20;;;22.90;66.40;;;;;;5045926;28;20412;-67
2022/04/18 13:19:36;;;;;;;2.53;2.33;;;23.00;65.20;;;;;;5044255;28;20282;-67
2022/04/18 13:22:07;;;;;;;2.13;2.03;;;22.30;64.60;;;;;;5047036;28;20258;-67
2022/04/18 13:24:35;;;;;;;2.53;2.40;;;22.20;64.50;;;;;;5049863;28;20255;-67
2022/04/18 13:27:04;;;;;;;2.63;2.50;;;22.30;66.80;;;;;;5039478;28;20193;-67
2022/04/18 13:29:33;;;;;;;2.50;2.40;;;22.40;68.10;;;;;;5048849;28;20656;-67
2022/04/18 13:32:01;;;;;;;2.43;2.30;;;22.40;64.50;;;;;;5050971;28;20617;-67